KRWL/RWL METAR and TAF weather

Enter ICAO airport designator
Station Type Date Time Source
KRWL METAR 2022/06/28 14:53 UTC NOAA

KRWL 281453Z AUTO VRB03KT 10SM CLR 21/00 A3040 RMK AO2 SLP194 T02110000 51005


Station Type Date Time Source
KRWL Decoded METAR 2022/06/28 14:53 UTC NOAA

RAWLINS MUNICIPAL AIRPORT, WY, United States (KRWL) 41-48N 107-12W
Jun 28, 2022 - 10:53 AM EDT / 2022.06.28 1453 UTC
Wind: Variable at 3 MPH (3 KT):0
Visibility: 10 mile(s):0
Sky conditions: clear
Temperature: 70.0 F (21.1 C)
Dew Point: 32.0 F (0.0 C)
Relative Humidity: 24%
Pressure (altimeter): 30.4 in. Hg (1029 hPa)
Pressure tendency: 0.01 inches (0.5 hPa) higher than three hours ago
ob: KRWL 281453Z AUTO VRB03KT 10SM CLR 21/00 A3040 RMK AO2 SLP194 T02110000 51005
cycle: 15

Station Type Date Time Source
KRWL TAF 2022/06/28 12:22 UTC NOAA

TAF KRWL 281120Z 2812/2912 VRB03KT P6SM SKC
FM281700 25008KT P6SM SKC
FM282300 25011KT P6SM FEW100
FM290100 19006KT P6SM SCT250

Example: see airport list